Time;durP1;ratioP1;P1;durP2;ratioP2;P2;SDS_P1;SDS_P2;PMS_P1;PMS_P2;Temp;Humidity;BMP_temperature;BMP_pressure;BME280_temperature;BME280_humidity;BME280_pressure;Samples;Min_cycle;Max_cycle;Signal;HPM_P1;HPM_P2
2021/03/20 00:00:33;;;;;;;3.33;2.72;;;2.70;61.00;;;;;;5076821;28;20392;-72
2021/03/20 00:02:58;;;;;;;5.07;2.67;;;2.80;60.90;;;;;;5079901;28;20416;-72
2021/03/20 00:05:24;;;;;;;4.60;3.13;;;2.80;59.80;;;;;;5080015;28;20031;-72
2021/03/20 00:07:51;;;;;;;3.78;2.95;;;2.70;60.20;;;;;;5080018;28;20035;-72
2021/03/20 00:10:18;;;;;;;3.78;2.95;;;2.70;60.40;;;;;;5062231;28;20025;-72
2021/03/20 00:12:46;;;;;;;3.72;2.50;;;2.70;59.50;;;;;;5079849;28;20028;-72
2021/03/20 00:15:14;;;;;;;2.83;2.10;;;2.70;59.20;;;;;;5079804;28;20031;-72
2021/03/20 00:17:40;;;;;;;2.75;2.42;;;2.70;58.80;;;;;;5079713;28;20071;-72
2021/03/20 00:20:08;;;;;;;2.92;2.25;;;2.70;58.60;;;;;;5079711;28;20312;-72
2021/03/20 00:22:34;;;;;;;4.35;2.65;;;2.80;58.50;;;;;;5061903;28;20029;-72
2021/03/20 00:25:00;;;;;;;3.13;2.80;;;2.80;58.30;;;;;;5079373;28;20052;-72
2021/03/20 00:27:25;;;;;;;3.67;2.72;;;2.80;59.00;;;;;;5079849;28;20064;-72
2021/03/20 00:29:51;;;;;;;3.28;2.53;;;2.70;59.70;;;;;;5079606;28;20074;-72
2021/03/20 00:32:17;;;;;;;5.70;3.13;;;2.70;59.50;;;;;;5079531;28;20031;-72
2021/03/20 00:34:42;;;;;;;3.10;2.33;;;2.70;60.00;;;;;;5079423;28;20035;-72
2021/03/20 00:37:08;;;;;;;5.13;2.90;;;2.70;59.80;;;;;;5079684;28;20059;-72
2021/03/20 00:39:34;;;;;;;2.53;2.17;;;2.70;59.60;;;;;;5079358;28;20059;-72
2021/03/20 00:41:59;;;;;;;3.83;2.55;;;2.80;59.00;;;;;;5061652;28;20021;-72
2021/03/20 00:44:25;;;;;;;4.45;2.97;;;2.80;58.90;;;;;;5079491;28;20112;-72
2021/03/20 00:46:51;;;;;;;4.82;3.00;;;2.70;59.00;;;;;;5079316;28;20024;-72
2021/03/20 00:49:17;;;;;;;3.10;2.65;;;2.70;59.00;;;;;;5061572;28;20032;-72
2021/03/20 00:51:43;;;;;;;4.28;2.65;;;2.70;58.80;;;;;;5079164;28;20048;-72
2021/03/20 00:54:08;;;;;;;4.32;2.53;;;2.70;59.10;;;;;;5079535;28;20123;-72
2021/03/20 00:56:34;;;;;;;4.07;2.72;;;2.70;59.20;;;;;;5079132;28;20025;-72
2021/03/20 00:59:00;;;;;;;4.68;3.03;;;2.70;59.70;;;;;;5078966;28;20024;-72
2021/03/20 01:01:25;;;;;;;4.10;3.28;;;2.60;61.00;;;;;;5061285;28;20027;-72
2021/03/20 01:03:51;;;;;;;3.78;2.70;;;2.60;61.20;;;;;;5078848;28;20316;-72
2021/03/20 01:06:25;;;;;;;13.55;2.85;;;2.60;60.30;;;;;;5078868;28;20020;-72
2021/03/20 01:08:52;;;;;;;3.22;2.60;;;2.70;60.10;;;;;;5061134;28;20024;-71
2021/03/20 01:11:18;;;;;;;6.88;4.10;;;2.70;58.80;;;;;;5078729;28;20024;-72
2021/03/20 01:13:44;;;;;;;3.70;2.65;;;2.80;57.50;;;;;;5060933;28;20332;-72
2021/03/20 01:16:11;;;;;;;3.55;2.88;;;2.90;57.30;;;;;;5061015;28;20119;-72
2021/03/20 01:18:38;;;;;;;4.10;2.50;;;2.90;57.00;;;;;;5078639;28;20033;-71
2021/03/20 01:21:05;;;;;;;3.65;2.60;;;3.00;57.00;;;;;;5078654;28;20020;-72
2021/03/20 01:23:31;;;;;;;4.13;2.35;;;2.90;57.90;;;;;;5078525;28;20033;-73
2021/03/20 01:25:56;;;;;;;3.30;2.33;;;2.80;58.30;;;;;;5060816;28;20032;-72
2021/03/20 01:28:27;;;;;;;2.55;2.03;;;2.70;57.00;;;;;;5060832;28;20316;-72
2021/03/20 01:30:53;;;;;;;2.58;2.08;;;2.60;56.20;;;;;;5078411;28;20439;-72
2021/03/20 01:33:19;;;;;;;3.22;1.90;;;2.60;56.40;;;;;;5078301;28;20031;-72
2021/03/20 01:35:45;;;;;;;2.72;2.05;;;2.50;57.90;;;;;;5078398;28;20024;-72
2021/03/20 01:38:11;;;;;;;3.20;2.13;;;2.30;57.80;;;;;;5078727;28;20324;-72
2021/03/20 01:40:43;;;;;;;2.78;2.20;;;2.10;58.00;;;;;;5078186;28;20020;-72
2021/03/20 01:43:12;;;;;;;3.42;1.70;;;1.90;58.80;;;;;;5078097;28;20027;-72
2021/03/20 01:45:38;;;;;;;4.15;2.13;;;1.60;58.40;;;;;;5060443;28;20021;-72
2021/03/20 01:48:10;;;;;;;4.95;2.10;;;1.50;57.80;;;;;;5078103;28;20447;-72
2021/03/20 01:50:47;;;;;;;2.72;2.05;;;1.50;58.60;;;;;;5078035;28;20025;-72
2021/03/20 01:53:25;;;;;;;3.50;2.50;;;1.50;59.40;;;;;;5078189;28;20032;-72
2021/03/20 01:55:50;;;;;;;3.88;2.33;;;1.50;59.70;;;;;;5078107;28;20095;-72
2021/03/20 01:58:16;;;;;;;3.80;2.50;;;1.50;59.90;;;;;;5078158;28;20087;-72
2021/03/20 02:00:44;;;;;;;3.95;2.75;;;1.50;59.30;;;;;;5078096;28;20023;-72
2021/03/20 02:03:18;;;;;;;3.95;2.42;;;1.60;59.70;;;;;;5077723;28;20048;-72
2021/03/20 02:05:44;;;;;;;3.35;2.42;;;1.70;60.30;;;;;;5077846;28;20020;-72
2021/03/20 02:08:14;;;;;;;5.15;2.78;;;1.70;60.20;;;;;;5077640;28;20029;-72
2021/03/20 02:10:43;;;;;;;3.40;2.42;;;1.80;59.40;;;;;;5077535;28;20031;-72
2021/03/20 02:13:12;;;;;;;3.95;2.75;;;1.90;59.20;;;;;;5059775;28;20428;-72
2021/03/20 02:15:45;;;;;;;2.58;2.38;;;1.90;59.60;;;;;;5077543;28;20028;-72
2021/03/20 02:18:21;;;;;;;3.90;2.95;;;2.00;59.80;;;;;;5077654;28;20063;-72
2021/03/20 02:21:22;;;;;;;3.85;2.58;;;2.00;59.80;;;;;;5077515;28;20077;-72
2021/03/20 02:23:50;;;;;;;3.22;2.53;;;2.10;59.80;;;;;;5076874;28;20049;-72
2021/03/20 02:26:37;;;;;;;3.78;2.60;;;2.10;59.50;;;;;;5077456;28;20298;-72
2021/03/20 02:29:38;;;;;;;3.38;2.88;;;2.20;59.10;;;;;;5059668;28;20028;-72
2021/03/20 02:32:39;;;;;;;3.35;2.50;;;2.10;59.80;;;;;;5077411;28;20029;-72
2021/03/20 02:35:20;;;;;;;3.45;2.30;;;2.10;60.10;;;;;;5077262;28;20343;-72
2021/03/20 02:38:16;;;;;;;4.00;2.70;;;2.10;59.90;;;;;;5077251;28;20024;-72
2021/03/20 02:41:02;;;;;;;4.57;2.70;;;2.10;60.20;;;;;;5077321;28;20029;-72
2021/03/20 02:43:49;;;;;;;3.90;2.78;;;2.10;61.90;;;;;;5077221;28;20052;-72
2021/03/20 02:46:43;;;;;;;4.85;2.85;;;2.10;62.00;;;;;;5059294;28;20463;-72
2021/03/20 02:49:38;;;;;;;3.08;2.58;;;2.00;61.90;;;;;;5077263;28;20027;-72
2021/03/20 02:52:06;;;;;;;5.85;2.67;;;2.00;60.70;;;;;;5077155;28;20029;-72
2021/03/20 02:54:52;;;;;;;4.78;2.75;;;2.00;60.90;;;;;;5076783;28;20412;-72
2021/03/20 02:57:25;;;;;;;3.65;2.75;;;2.00;59.80;;;;;;5077228;28;20078;-72
2021/03/20 03:00:01;;;;;;;3.13;2.58;;;2.00;59.70;;;;;;5076869;28;20038;-72
2021/03/20 03:02:30;;;;;;;3.72;2.42;;;2.00;59.90;;;;;;5076830;28;20020;-72
2021/03/20 03:05:10;;;;;;;3.28;2.53;;;2.10;60.10;;;;;;5076678;28;20028;-72
2021/03/20 03:07:40;;;;;;;5.07;2.40;;;2.10;59.00;;;;;;5077096;28;20025;-72
2021/03/20 03:10:31;;;;;;;3.95;2.47;;;2.10;58.90;;;;;;5077355;28;20048;-72
2021/03/20 03:13:11;;;;;;;4.13;2.72;;;2.10;58.80;;;;;;5077155;28;20032;-72
2021/03/20 03:15:42;;;;;;;3.42;2.60;;;2.10;59.50;;;;;;5076776;28;20316;-71
2021/03/20 03:18:12;;;;;;;3.50;1.90;;;2.20;59.30;;;;;;5076607;28;20031;-72
2021/03/20 03:20:44;;;;;;;3.22;2.40;;;2.30;57.50;;;;;;5076715;28;20127;-72
2021/03/20 03:23:22;;;;;;;3.50;2.50;;;2.30;58.10;;;;;;5076903;28;20039;-72
2021/03/20 03:26:08;;;;;;;2.80;2.00;;;2.30;58.40;;;;;;5076633;28;20412;-72
2021/03/20 03:28:34;;;;;;;2.85;2.15;;;2.20;57.90;;;;;;5076963;28;20093;-72
2021/03/20 03:31:07;;;;;;;2.92;2.17;;;2.20;57.20;;;;;;5076580;28;20452;-72
2021/03/20 03:33:40;;;;;;;3.50;2.08;;;2.10;57.30;;;;;;5076738;28;20035;-72
2021/03/20 03:36:08;;;;;;;2.85;2.13;;;2.10;57.60;;;;;;5060527;28;20083;-72
2021/03/20 03:38:50;;;;;;;4.90;3.15;;;2.00;58.60;;;;;;5080607;28;20028;-72
2021/03/20 03:41:33;;;;;;;3.75;2.72;;;1.90;59.10;;;;;;5080833;28;20028;-72
2021/03/20 03:44:00;;;;;;;3.80;2.78;;;1.60;59.30;;;;;;5080380;28;20025;-72
2021/03/20 03:46:36;;;;;;;4.35;3.20;;;1.80;59.30;;;;;;5080457;28;20025;-72
2021/03/20 03:49:05;;;;;;;3.38;2.85;;;1.90;59.70;;;;;;5062680;28;20028;-72
2021/03/20 03:51:31;;;;;;;4.90;2.80;;;1.90;60.70;;;;;;5080306;28;20024;-72
2021/03/20 03:53:58;;;;;;;5.65;2.80;;;1.80;61.70;;;;;;5062634;28;20104;-72
2021/03/20 03:56:42;;;;;;;4.43;3.20;;;1.60;62.80;;;;;;5080519;28;20036;-72
2021/03/20 04:00:00;;;;;;;4.85;3.22;;;1.40;63.70;;;;;;5080252;28;20458;-72
2021/03/20 04:02:40;;;;;;;3.53;2.70;;;1.20;62.90;;;;;;5056067;28;20305;-72
2021/03/20 04:05:11;;;;;;;3.58;2.70;;;1.20;62.90;;;;;;5080119;28;20021;-72
2021/03/20 04:07:58;;;;;;;3.70;3.10;;;1.10;64.00;;;;;;5062261;28;20428;-72
2021/03/20 04:10:26;;;;;;;;;;;1.00;64.40;;;;;;5080763;28;20024;-72
2021/03/20 04:12:58;;;;;;;4.60;3.58;;;0.90;65.10;;;;;;5062192;28;20026;-72
2021/03/20 04:15:52;;;;;;;3.58;2.67;;;0.70;65.90;;;;;;5080176;28;20029;-72
2021/03/20 04:18:26;;;;;;;3.42;2.47;;;0.70;66.20;;;;;;5080006;28;20029;-72
2021/03/20 04:21:17;;;;;;;4.55;3.25;;;0.60;66.50;;;;;;5080042;28;20024;-72
2021/03/20 04:24:00;;;;;;;4.72;2.85;;;0.60;66.30;;;;;;5056095;28;20356;-72
2021/03/20 04:26:54;;;;;;;6.38;3.35;;;0.50;66.90;;;;;;5079716;28;20052;-72
2021/03/20 04:29:26;;;;;;;5.18;3.35;;;0.40;67.10;;;;;;5061915;28;20380;-72
2021/03/20 04:32:11;;;;;;;4.47;3.03;;;0.40;66.90;;;;;;5061824;28;20408;-72
2021/03/20 04:34:46;;;;;;;4.38;2.75;;;0.50;65.90;;;;;;5079463;28;20439;-72
2021/03/20 04:37:19;;;;;;;2.60;2.10;;;0.50;66.00;;;;;;5079557;28;20099;-72
2021/03/20 04:39:49;;;;;;;3.83;2.38;;;0.50;66.00;;;;;;5079420;28;20051;-72
2021/03/20 04:42:22;;;;;;;6.95;2.67;;;0.50;66.30;;;;;;5079383;28;20420;-72
2021/03/20 04:44:49;;;;;;;4.07;2.95;;;0.40;65.00;;;;;;5079266;28;20025;-72
2021/03/20 04:47:18;;;;;;;3.63;2.53;;;0.40;64.70;;;;;;5078766;28;20021;-72
2021/03/20 04:49:50;;;;;;;5.75;3.28;;;0.50;64.70;;;;;;5079217;28;20029;-72
2021/03/20 04:52:27;;;;;;;3.53;2.60;;;0.50;65.50;;;;;;5061444;28;20040;-72
2021/03/20 04:54:54;;;;;;;3.33;2.50;;;0.60;62.00;;;;;;5079124;28;20422;-72
2021/03/20 04:57:33;;;;;;;2.75;2.00;;;0.90;60.40;;;;;;5079412;28;20036;-72
2021/03/20 05:00:33;;;;;;;3.15;1.95;;;1.60;54.00;;;;;;5079389;28;20029;-72
2021/03/20 05:03:23;;;;;;;2.63;1.75;;;1.90;55.90;;;;;;5078940;28;20031;-72
2021/03/20 05:05:49;;;;;;;3.47;1.85;;;1.90;54.90;;;;;;5079034;28;20486;-72
2021/03/20 05:08:40;;;;;;;3.30;1.92;;;1.80;55.70;;;;;;5078953;28;20028;-72
2021/03/20 05:11:15;;;;;;;3.20;2.30;;;1.60;57.70;;;;;;5076029;28;20131;-72
2021/03/20 05:14:02;;;;;;;3.05;2.10;;;1.50;55.90;;;;;;5078695;28;20038;-72
2021/03/20 05:16:37;;;;;;;3.47;2.30;;;1.50;56.70;;;;;;5079020;28;20098;-72
2021/03/20 05:19:04;;;;;;;4.30;2.67;;;1.40;58.70;;;;;;5060966;28;20340;-72
2021/03/20 05:21:34;;;;;;;4.43;2.97;;;1.20;59.40;;;;;;5078973;28;20405;-72
2021/03/20 05:24:00;;;;;;;4.00;2.90;;;1.10;59.30;;;;;;5078582;28;20437;-72
2021/03/20 05:26:31;;;;;;;3.85;2.78;;;1.30;58.20;;;;;;5078854;28;20028;-72
2021/03/20 05:28:57;;;;;;;3.35;2.40;;;1.40;58.20;;;;;;5078537;28;20472;-72
2021/03/20 05:31:23;;;;;;;5.10;2.20;;;1.50;58.40;;;;;;5078446;28;20032;-72
2021/03/20 05:33:50;;;;;;;3.33;2.15;;;1.50;59.40;;;;;;5078395;28;20052;-72
2021/03/20 05:36:16;;;;;;;4.18;2.67;;;1.40;60.00;;;;;;5060599;28;20037;-72
2021/03/20 05:38:44;;;;;;;4.03;2.47;;;1.40;59.70;;;;;;5078338;28;20081;-72
2021/03/20 05:41:46;;;;;;;4.50;2.83;;;1.40;59.50;;;;;;5078279;28;20123;-72
2021/03/20 05:44:46;;;;;;;6.70;2.67;;;1.40;59.40;;;;;;5078238;28;20087;-72
2021/03/20 05:47:46;;;;;;;3.42;2.45;;;1.50;60.50;;;;;;5067350;28;20396;-72
2021/03/20 05:50:52;;;;;;;3.40;2.55;;;1.60;59.40;;;;;;5060437;28;20039;-72
2021/03/20 05:53:45;;;;;;;4.65;2.40;;;1.70;59.50;;;;;;5078075;28;20032;-72
2021/03/20 05:56:22;;;;;;;6.15;2.88;;;1.70;59.20;;;;;;5078523;28;20362;-72
2021/03/20 05:59:13;;;;;;;4.80;2.80;;;1.90;58.80;;;;;;5077200;28;20382;-72
2021/03/20 06:02:00;;;;;;;7.75;4.30;;;1.90;61.10;;;;;;5078049;28;20024;-72
2021/03/20 06:04:46;;;;;;;7.15;3.40;;;2.00;61.70;;;;;;5047273;28;20374;-72
2021/03/20 06:07:47;;;;;;;5.43;3.42;;;2.00;61.90;;;;;;5077798;28;20028;-72
2021/03/20 06:10:39;;;;;;;5.32;3.40;;;2.00;60.20;;;;;;5077939;28;20021;-72
2021/03/20 06:13:38;;;;;;;5.07;3.03;;;2.00;59.20;;;;;;5077814;28;20025;-72
2021/03/20 06:16:35;;;;;;;5.28;2.85;;;2.20;59.40;;;;;;5078128;28;20020;-72
2021/03/20 06:19:12;;;;;;;;;;;2.30;58.20;;;;;;5069635;28;20332;-72
2021/03/20 06:22:08;;;;;;;3.75;2.60;;;2.40;57.30;;;;;;5077801;28;20280;-72
2021/03/20 06:24:58;;;;;;;4.70;2.80;;;2.60;56.40;;;;;;5077302;28;20053;-72
2021/03/20 06:27:32;;;;;;;4.35;2.70;;;2.70;56.10;;;;;;5077951;28;20033;-72
2021/03/20 06:30:16;;;;;;;4.65;2.92;;;2.90;55.50;;;;;;5077627;28;20021;-72
2021/03/20 06:32:46;;;;;;;6.47;3.22;;;3.00;55.40;;;;;;5077302;28;20108;-72
2021/03/20 06:35:15;;;;;;;4.80;2.70;;;3.10;55.00;;;;;;5077207;28;20027;-72
2021/03/20 06:37:46;;;;;;;4.63;2.72;;;3.10;55.50;;;;;;5077084;28;20055;-72
2021/03/20 06:40:32;;;;;;;4.45;3.10;;;3.10;55.50;;;;;;5059446;28;20036;-72
2021/03/20 06:42:58;;;;;;;5.95;2.92;;;3.20;55.70;;;;;;5077246;28;20020;-72
2021/03/20 06:45:29;;;;;;;4.30;3.05;;;3.20;55.80;;;;;;5077196;28;20103;-72
2021/03/20 06:48:08;;;;;;;5.28;3.22;;;3.30;55.10;;;;;;5077334;28;20028;-72
2021/03/20 06:50:49;;;;;;;5.93;3.50;;;3.40;55.80;;;;;;5059273;28;20024;-72
2021/03/20 06:53:17;;;;;;;4.70;2.80;;;3.50;55.20;;;;;;5059203;28;20029;-72
2021/03/20 06:55:46;;;;;;;6.07;3.53;;;3.50;55.10;;;;;;5059830;28;20381;-72
2021/03/20 06:58:21;;;;;;;4.25;2.55;;;3.50;55.50;;;;;;5076863;28;20029;-72
2021/03/20 07:00:47;;;;;;;4.38;2.90;;;3.60;55.60;;;;;;5076917;28;20020;-72
2021/03/20 07:03:13;;;;;;;4.65;2.72;;;3.70;56.20;;;;;;5077049;28;20042;-72
2021/03/20 07:05:50;;;;;;;4.90;3.08;;;3.80;55.30;;;;;;5076890;28;20355;-72
2021/03/20 07:08:18;;;;;;;5.70;3.00;;;3.80;54.90;;;;;;5076932;28;20028;-72
2021/03/20 07:10:52;;;;;;;5.47;2.90;;;3.80;56.20;;;;;;5076546;28;20104;-72
2021/03/20 07:13:23;;;;;;;4.68;2.88;;;3.90;54.60;;;;;;5076981;28;20024;-72
2021/03/20 07:16:07;;;;;;;4.68;2.58;;;4.00;54.90;;;;;;5077004;28;20032;-72
2021/03/20 07:18:42;;;;;;;5.15;2.80;;;4.10;54.30;;;;;;5076748;28;20106;-72
2021/03/20 07:21:35;;;;;;;4.27;2.67;;;4.10;54.00;;;;;;5076704;28;20021;-72
2021/03/20 07:24:21;;;;;;;4.10;2.63;;;4.20;53.10;;;;;;5076294;28;20279;-72
2021/03/20 07:26:54;;;;;;;6.63;2.63;;;4.20;55.20;;;;;;5076748;28;20431;-72
2021/03/20 07:29:44;;;;;;;6.05;3.00;;;4.30;54.30;;;;;;5076883;28;20036;-72
2021/03/20 07:32:13;;;;;;;3.88;2.45;;;4.40;54.10;;;;;;5076592;28;20029;-72
2021/03/20 07:34:39;;;;;;;4.40;2.75;;;4.50;53.00;;;;;;5076461;28;20035;-72
2021/03/20 07:37:22;;;;;;;3.42;2.17;;;4.70;56.30;;;;;;5058734;28;20115;-72
2021/03/20 07:40:14;;;;;;;4.70;2.47;;;4.90;53.20;;;;;;5076821;28;20325;-72
2021/03/20 07:42:41;;;;;;;3.47;2.28;;;5.30;53.40;;;;;;5069507;28;20131;-73
2021/03/20 07:45:28;;;;;;;3.90;2.70;;;5.50;50.60;;;;;;5076335;28;20067;-72
2021/03/20 07:47:54;;;;;;;4.20;2.78;;;5.50;53.50;;;;;;5058661;28;20052;-73
2021/03/20 07:50:22;;;;;;;4.50;2.80;;;5.50;53.40;;;;;;5076307;28;20087;-72
2021/03/20 07:53:00;;;;;;;4.72;3.05;;;5.50;54.40;;;;;;5058800;28;20435;-72
2021/03/20 07:55:26;;;;;;;6.95;2.95;;;5.60;55.00;;;;;;5076375;28;20068;-73
2021/03/20 07:57:56;;;;;;;4.65;3.10;;;5.60;54.00;;;;;;5076670;28;20031;-73
2021/03/20 08:00:26;;;;;;;3.95;3.05;;;5.60;55.90;;;;;;5076592;28;20032;-72
2021/03/20 08:02:53;;;;;;;5.35;3.78;;;5.60;56.50;;;;;;5076279;28;20028;-73
2021/03/20 08:05:20;;;;;;;6.30;3.55;;;5.80;56.60;;;;;;5076304;28;20017;-73
2021/03/20 08:07:48;;;;;;;5.65;3.85;;;6.10;54.00;;;;;;5076586;28;20146;-73
2021/03/20 08:10:27;;;;;;;6.32;2.95;;;6.30;52.90;;;;;;5076226;28;20028;-73
2021/03/20 08:13:00;;;;;;;4.80;3.78;;;6.60;54.10;;;;;;5076409;28;20046;-73
2021/03/20 08:15:56;;;;;;;4.20;2.90;;;7.20;52.90;;;;;;5076157;28;20070;-73
2021/03/20 08:18:29;;;;;;;6.97;2.90;;;8.00;50.40;;;;;;5073259;28;20039;-73
2021/03/20 08:21:10;;;;;;;4.68;3.13;;;8.80;47.00;;;;;;5076169;28;20312;-73
2021/03/20 08:23:53;;;;;;;3.60;2.63;;;9.30;46.00;;;;;;5079793;28;20415;-73
2021/03/20 08:26:33;;;;;;;4.07;2.58;;;9.90;45.80;;;;;;5079613;28;20028;-73
2021/03/20 08:29:08;;;;;;;6.60;2.92;;;10.70;42.80;;;;;;5079938;28;20043;-73
2021/03/20 08:31:52;;;;;;;3.97;2.92;;;11.00;41.80;;;;;;5079697;28;20021;-73
2021/03/20 08:34:26;;;;;;;4.13;2.75;;;11.30;42.20;;;;;;5079530;28;20021;-73
2021/03/20 08:36:58;;;;;;;4.15;2.92;;;11.60;40.50;;;;;;5079808;28;20050;-73
2021/03/20 08:39:42;;;;;;;3.92;2.58;;;11.70;41.20;;;;;;5079685;28;20366;-72
2021/03/20 08:42:58;;;;;;;3.60;2.85;;;12.20;40.00;;;;;;5079416;28;20021;-72
2021/03/20 08:45:47;;;;;;;6.20;2.75;;;12.40;39.10;;;;;;5001335;28;20453;-73
2021/03/20 08:48:33;;;;;;;4.32;2.60;;;11.30;40.10;;;;;;5076595;28;20033;-71
2021/03/20 08:51:04;;;;;;;4.25;2.75;;;10.80;42.40;;;;;;5079380;28;20108;-73
2021/03/20 08:53:50;;;;;;;3.13;2.22;;;9.90;42.20;;;;;;5079445;28;20074;-73
2021/03/20 08:56:36;;;;;;;3.45;2.20;;;8.50;45.80;;;;;;5079147;28;20032;-73
2021/03/20 08:59:06;;;;;;;4.80;2.73;;;7.10;48.20;;;;;;5079050;28;20024;-73
2021/03/20 09:01:43;;;;;;;3.15;2.25;;;6.40;50.50;;;;;;5079109;28;20024;-73
2021/03/20 09:04:20;;;;;;;4.22;2.28;;;6.10;50.30;;;;;;5079076;28;20104;-73
2021/03/20 09:06:58;;;;;;;3.70;2.40;;;5.80;51.80;;;;;;5079324;28;20070;-73
2021/03/20 09:09:38;;;;;;;3.42;2.53;;;5.50;51.30;;;;;;5079036;28;20033;-73
2021/03/20 09:12:19;;;;;;;3.75;2.65;;;5.30;51.90;;;;;;5078918;28;20086;-73
2021/03/20 09:14:48;;;;;;;5.07;2.80;;;5.10;52.40;;;;;;5078845;28;20032;-73
2021/03/20 09:17:36;;;;;;;4.93;2.75;;;5.00;53.50;;;;;;5078842;28;20087;-73
2021/03/20 09:20:26;;;;;;;3.30;2.50;;;5.20;53.70;;;;;;5079049;28;20024;-73
2021/03/20 09:22:52;;;;;;;4.57;2.70;;;5.30;53.20;;;;;;5078776;28;20020;-73
2021/03/20 09:25:33;;;;;;;4.47;2.72;;;5.40;52.30;;;;;;5078413;28;20127;-73
2021/03/20 09:28:27;;;;;;;4.20;2.50;;;5.60;51.60;;;;;;5078793;28;20029;-73
2021/03/20 09:30:57;;;;;;;4.43;3.10;;;5.60;51.10;;;;;;5078851;28;20028;-73
2021/03/20 09:33:25;;;;;;;3.40;2.63;;;5.70;50.40;;;;;;5078322;28;20036;-73
2021/03/20 09:35:54;;;;;;;3.97;2.90;;;5.80;52.00;;;;;;5078664;28;20024;-73
2021/03/20 09:38:35;;;;;;;4.28;2.65;;;5.90;51.20;;;;;;5078547;28;20029;-73
2021/03/20 09:41:13;;;;;;;8.40;2.83;;;6.60;52.20;;;;;;5078276;28;20021;-73
2021/03/20 09:44:00;;;;;;;6.03;2.90;;;7.00;52.30;;;;;;5060436;28;20075;-73
2021/03/20 09:46:38;;;;;;;4.07;2.60;;;7.20;49.10;;;;;;5078408;28;20150;-73
2021/03/20 09:49:07;;;;;;;4.30;3.30;;;7.00;50.00;;;;;;5078228;28;20420;-73
2021/03/20 09:51:51;;;;;;;5.50;3.20;;;6.80;49.40;;;;;;5078120;28;20099;-73
2021/03/20 09:54:26;;;;;;;3.30;2.88;;;6.60;50.00;;;;;;5078416;28;20036;-73
2021/03/20 09:56:51;;;;;;;4.18;3.05;;;6.60;50.20;;;;;;5078042;28;20025;-73
2021/03/20 09:59:37;;;;;;;2.67;2.42;;;7.10;48.50;;;;;;5077925;28;20093;-73
2021/03/20 10:02:09;;;;;;;4.68;2.72;;;8.30;48.40;;;;;;5067264;28;20064;-73
2021/03/20 10:04:56;;;;;;;4.85;3.28;;;9.40;46.40;;;;;;5060080;28;20209;-74
2021/03/20 10:07:22;;;;;;;3.45;2.75;;;10.60;45.20;;;;;;5078053;28;20025;-74
2021/03/20 10:09:53;;;;;;;4.25;2.55;;;12.00;41.60;;;;;;5077763;28;20320;-72
2021/03/20 10:12:25;;;;;;;3.28;2.60;;;12.40;39.20;;;;;;5076347;28;20148;-72
2021/03/20 10:15:22;;;;;;;4.18;2.92;;;12.60;39.40;;;;;;5082388;28;20331;-72
2021/03/20 10:18:11;;;;;;;3.00;2.60;;;12.90;39.60;;;;;;5097900;28;20028;-72
2021/03/20 10:20:52;;;;;;;3.85;2.83;;;13.30;37.80;;;;;;5098302;28;20016;-72
2021/03/20 10:23:38;;;;;;;3.83;2.53;;;13.80;38.30;;;;;;5079666;28;20035;-72
2021/03/20 10:26:24;;;;;;;4.93;2.47;;;14.30;38.40;;;;;;5097942;28;20416;-71
2021/03/20 10:28:56;;;;;;;5.45;2.70;;;14.50;36.40;;;;;;5079672;28;20028;-71
2021/03/20 10:31:24;;;;;;;3.80;3.13;;;14.20;37.60;;;;;;5097904;28;20052;-71
2021/03/20 10:34:02;;;;;;;5.07;3.05;;;13.30;39.10;;;;;;5097604;28;20106;-71
2021/03/20 10:36:40;;;;;;;4.07;3.13;;;11.90;38.00;;;;;;5097809;28;20028;-72
2021/03/20 10:39:24;;;;;;;3.88;3.08;;;10.30;41.70;;;;;;5097345;28;20050;-73
2021/03/20 10:41:52;;;;;;;5.65;2.88;;;9.30;43.80;;;;;;5097542;28;20024;-73
2021/03/20 10:44:21;;;;;;;4.07;2.88;;;8.80;45.10;;;;;;5096848;28;20048;-73
2021/03/20 10:46:48;;;;;;;3.35;2.70;;;8.20;45.60;;;;;;5097298;28;20403;-71
2021/03/20 10:49:26;;;;;;;2.80;2.55;;;7.60;46.60;;;;;;5097331;28;20024;-72
2021/03/20 10:51:56;;;;;;;7.78;2.42;;;7.40;47.40;;;;;;5097590;28;20024;-73
2021/03/20 10:54:32;;;;;;;4.45;2.70;;;7.20;48.70;;;;;;5097669;28;20059;-73
2021/03/20 10:57:08;;;;;;;3.25;2.67;;;7.10;48.80;;;;;;5097198;28;20378;-73
2021/03/20 10:59:37;;;;;;;3.53;2.78;;;7.10;47.20;;;;;;5097162;28;20396;-73
2021/03/20 11:02:28;;;;;;;4.55;2.50;;;7.10;47.00;;;;;;5097127;28;20031;-73
2021/03/20 11:05:30;;;;;;;3.33;2.10;;;7.10;47.00;;;;;;5097189;28;20027;-73
2021/03/20 11:08:01;;;;;;;10.55;2.38;;;7.10;47.50;;;;;;5096936;28;20131;-73
2021/03/20 11:10:36;;;;;;;3.60;2.08;;;6.80;47.70;;;;;;5079162;28;20020;-73
2021/03/20 11:13:17;;;;;;;2.80;2.00;;;6.90;49.40;;;;;;5096883;28;20023;-73
2021/03/20 11:15:46;;;;;;;5.97;2.35;;;6.90;49.30;;;;;;5096986;28;20396;-73
2021/03/20 11:18:43;;;;;;;3.47;2.25;;;6.80;49.00;;;;;;5096864;28;20289;-73
2021/03/20 11:21:37;;;;;;;5.20;2.03;;;6.70;50.90;;;;;;5095849;28;20033;-73
2021/03/20 11:24:28;;;;;;;5.00;2.30;;;6.80;50.90;;;;;;5075728;28;20047;-73
2021/03/20 11:26:55;;;;;;;3.70;2.10;;;6.90;50.70;;;;;;5096831;28;20025;-73
2021/03/20 11:29:23;;;;;;;2.75;1.92;;;6.90;49.20;;;;;;5096758;28;20032;-73
2021/03/20 11:31:54;;;;;;;3.10;1.98;;;6.80;49.60;;;;;;5096948;28;20024;-73
2021/03/20 11:34:31;;;;;;;3.17;2.28;;;6.90;51.20;;;;;;5096703;28;20158;-73
2021/03/20 11:37:00;;;;;;;6.60;2.00;;;7.10;50.00;;;;;;5096773;28;20032;-73
2021/03/20 11:39:26;;;;;;;3.10;2.20;;;7.40;49.60;;;;;;5096677;28;20024;-73
2021/03/20 11:42:07;;;;;;;4.32;2.10;;;8.00;45.40;;;;;;5096620;28;20028;-73
2021/03/20 11:44:40;;;;;;;3.67;2.20;;;9.20;47.90;;;;;;5096880;28;20054;-74
2021/03/20 11:47:06;;;;;;;4.82;1.98;;;10.40;45.40;;;;;;5096669;28;20099;-73
2021/03/20 11:49:58;;;;;;;2.85;2.42;;;11.40;42.30;;;;;;5096611;28;20124;-74
2021/03/20 11:52:26;;;;;;;4.43;2.17;;;11.80;40.90;;;;;;5091654;28;20032;-74
2021/03/20 11:55:20;;;;;;;9.23;2.30;;;12.20;41.00;;;;;;5096786;28;20032;-74
2021/03/20 11:57:46;;;;;;;5.40;2.20;;;12.30;41.00;;;;;;5096721;28;20043;-74
2021/03/20 12:00:33;;;;;;;2.92;2.45;;;12.40;39.40;;;;;;5100569;28;20028;-74
2021/03/20 12:03:00;;;;;;;;;;;12.40;38.50;;;;;;5100914;28;20028;-74
2021/03/20 12:05:32;;;;;;;4.90;2.15;;;12.60;39.20;;;;;;5100451;28;19907;-74
2021/03/20 12:08:27;;;;;;;7.30;2.00;;;13.10;39.60;;;;;;5100654;28;20032;-71
2021/03/20 12:11:07;;;;;;;2.40;2.00;;;13.20;39.90;;;;;;5100724;28;20043;-73
2021/03/20 12:13:46;;;;;;;3.35;2.25;;;13.20;40.00;;;;;;5100414;28;20103;-73
2021/03/20 12:16:43;;;;;;;2.75;1.77;;;13.00;40.10;;;;;;5082295;28;20020;-73
2021/03/20 12:19:14;;;;;;;3.67;2.30;;;12.70;39.60;;;;;;5080002;28;20036;-74
2021/03/20 12:21:56;;;;;;;2.75;2.03;;;12.60;41.80;;;;;;5100404;28;20051;-74
2021/03/20 12:24:28;;;;;;;3.00;2.00;;;12.50;39.10;;;;;;5100078;28;20051;-71
2021/03/20 12:26:54;;;;;;;2.47;2.15;;;12.30;37.90;;;;;;5100238;28;20362;-72
2021/03/20 12:29:40;;;;;;;2.45;1.85;;;11.90;40.00;;;;;;5099970;28;20411;-72
2021/03/20 12:32:22;;;;;;;3.07;2.03;;;11.30;38.40;;;;;;5099910;28;20028;-73
2021/03/20 12:34:49;;;;;;;6.43;2.05;;;10.90;40.60;;;;;;5099910;28;20073;-74
2021/03/20 12:37:21;;;;;;;6.32;2.65;;;10.90;39.80;;;;;;5099804;28;20609;-74
2021/03/20 12:39:48;;;;;;;4.40;2.40;;;11.00;41.80;;;;;;5099747;28;20020;-74
2021/03/20 12:42:14;;;;;;;3.67;2.50;;;10.70;40.70;;;;;;5099787;28;20465;-74
2021/03/20 12:44:42;;;;;;;4.13;1.60;;;10.20;40.80;;;;;;5099643;28;20028;-72
2021/03/20 12:47:11;;;;;;;2.40;1.15;;;9.60;42.80;;;;;;5099615;28;20057;-73
2021/03/20 12:49:37;;;;;;;3.08;1.55;;;8.00;46.60;;;;;;5081635;28;20031;-73
2021/03/20 12:52:05;;;;;;;2.22;1.20;;;7.10;49.70;;;;;;5099494;28;20024;-73
2021/03/20 12:54:40;;;;;;;1.92;1.30;;;6.30;50.90;;;;;;5099444;28;20436;-72
2021/03/20 12:57:06;;;;;;;1.83;1.52;;;5.90;51.00;;;;;;5099587;28;20056;-73
2021/03/20 12:59:32;;;;;;;2.28;1.60;;;5.70;52.50;;;;;;5099441;28;20312;-73
2021/03/20 13:01:58;;;;;;;2.42;1.75;;;5.60;54.50;;;;;;5099512;28;20024;-73
2021/03/20 13:04:24;;;;;;;2.72;1.60;;;5.50;56.10;;;;;;5099289;28;20066;-73
2021/03/20 13:06:50;;;;;;;1.73;1.40;;;5.50;54.90;;;;;;5099152;28;20021;-73
2021/03/20 13:09:18;;;;;;;2.83;1.73;;;5.50;54.30;;;;;;5098959;28;20297;-73
2021/03/20 13:11:45;;;;;;;3.08;1.90;;;5.40;54.10;;;;;;5081256;28;20040;-73
2021/03/20 13:14:10;;;;;;;2.50;2.03;;;5.30;53.90;;;;;;5099043;28;20073;-74
2021/03/20 13:16:36;;;;;;;2.70;1.70;;;5.40;53.70;;;;;;5099535;28;20032;-73
2021/03/20 13:19:03;;;;;;;3.08;1.50;;;5.20;50.10;;;;;;5098952;28;20020;-73
2021/03/20 13:21:32;;;;;;;2.10;1.20;;;5.20;53.40;;;;;;5098985;28;20077;-73
2021/03/20 13:23:58;;;;;;;2.00;1.52;;;5.30;54.10;;;;;;5099042;28;20043;-73
2021/03/20 13:26:24;;;;;;;2.53;1.52;;;5.50;53.40;;;;;;5099069;28;20032;-73
2021/03/20 13:28:49;;;;;;;3.63;2.05;;;5.60;55.00;;;;;;5098845;28;20027;-73
2021/03/20 13:31:15;;;;;;;3.70;2.05;;;5.90;53.80;;;;;;5080877;28;20037;-73
2021/03/20 13:33:42;;;;;;;5.03;1.83;;;6.20;53.50;;;;;;5098939;28;20032;-73
2021/03/20 13:36:10;;;;;;;2.72;2.17;;;6.60;55.90;;;;;;5098709;28;20412;-73
2021/03/20 13:38:36;;;;;;;5.18;2.50;;;6.90;50.50;;;;;;5098615;28;20032;-73